Aviation Digital Data Service (ADDS)

Output produced by METARs form (0619 UTC 19 February 2019)
found at http://www.aviationweather.gov/metar/data/
 
METAR text: ZBYN 190600Z VRB02MPS 8000 NSC 05/M14 Q1018 NOSIG
Conditions at: ZBYN (TAIYUAN/WUSU , CN) observed 0600 UTC 19 February 2019
Temperature: 5.0°C (41°F)
Dewpoint: -14.0°C ( 7°F) [RH = 24%]
Pressure (altimeter): 30.06 inches Hg (1018.0 mb)
Winds: variable direction winds at 5 MPH (4 knots; 2.1 m/s)
Visibility: 5 miles ( 8 km)
Ceiling: at least 12,000 feet AGL
Clouds: sky clear below 12,000 feet AGL
Weather: no significant weather observed at this time

METAR text: ZBYN 190530Z VRB02G07MPS 7000 NSC 04/M14 Q1018 NOSIG
Conditions at: ZBYN (TAIYUAN/WUSU , CN) observed 0530 UTC 19 February 2019
Temperature: 4.0°C (39°F)
Dewpoint: -14.0°C ( 7°F) [RH = 25%]
Pressure (altimeter): 30.06 inches Hg (1018.0 mb)
Winds: variable direction winds at 5 MPH (4 knots; 2.1 m/s)
gusting to 16 MPH (14 knots; 7.2 m/s)
Visibility: 4 miles ( 7 km)
Ceiling: at least 12,000 feet AGL
Clouds: sky clear below 12,000 feet AGL
Weather: no significant weather observed at this time

METAR text: ZBYN 190500Z 17003MPS 130V210 7000 NSC 04/M13 Q1019 NOSIG
Conditions at: ZBYN (TAIYUAN/WUSU , CN) observed 0500 UTC 19 February 2019
Temperature: 4.0°C (39°F)
Dewpoint: -13.0°C ( 9°F) [RH = 28%]
Pressure (altimeter): 30.09 inches Hg (1019.0 mb)
Winds: from the S (170 degrees) at 7 MPH (6 knots; 3.1 m/s)
Visibility: 4 miles ( 7 km)
Ceiling: at least 12,000 feet AGL
Clouds: sky clear below 12,000 feet AGL
Weather: no significant weather observed at this time

METAR text: ZBYN 190430Z VRB02MPS 8000 NSC 03/M15 Q1019 NOSIG
Conditions at: ZBYN (TAIYUAN/WUSU , CN) observed 0430 UTC 19 February 2019
Temperature: 3.0°C (37°F)
Dewpoint: -15.0°C ( 5°F) [RH = 25%]
Pressure (altimeter): 30.09 inches Hg (1019.0 mb)
Winds: variable direction winds at 5 MPH (4 knots; 2.1 m/s)
Visibility: 5 miles ( 8 km)
Ceiling: at least 12,000 feet AGL
Clouds: sky clear below 12,000 feet AGL
Weather: no significant weather observed at this time

METAR text: ZBYN 190400Z 24003MPS 180V280 7000 NSC 02/M13 Q1019 NOSIG
Conditions at: ZBYN (TAIYUAN/WUSU , CN) observed 0400 UTC 19 February 2019
Temperature: 2.0°C (36°F)
Dewpoint: -13.0°C ( 9°F) [RH = 32%]
Pressure (altimeter): 30.09 inches Hg (1019.0 mb)
Winds: from the WSW (240 degrees) at 7 MPH (6 knots; 3.1 m/s)
Visibility: 4 miles ( 7 km)
Ceiling: at least 12,000 feet AGL
Clouds: sky clear below 12,000 feet AGL
Weather: no significant weather observed at this time

METAR text: ZBYN 190330Z 27004MPS 220V310 6000 NSC 02/M13 Q1019 NOSIG
Conditions at: ZBYN (TAIYUAN/WUSU , CN) observed 0330 UTC 19 February 2019
Temperature: 2.0°C (36°F)
Dewpoint: -13.0°C ( 9°F) [RH = 32%]
Pressure (altimeter): 30.09 inches Hg (1019.0 mb)
Winds: from the W (270 degrees) at 9 MPH (8 knots; 4.1 m/s)
Visibility: 4 miles ( 6 km)
Ceiling: at least 12,000 feet AGL
Clouds: sky clear below 12,000 feet AGL
Weather: no significant weather observed at this time

METAR text: ZBYN 190300Z VRB02MPS 6000 NSC 01/M11 Q1019 NOSIG
Conditions at: ZBYN (TAIYUAN/WUSU , CN) observed 0300 UTC 19 February 2019
Temperature: 1.0°C (34°F)
Dewpoint: -11.0°C (12°F) [RH = 40%]
Pressure (altimeter): 30.09 inches Hg (1019.0 mb)
Winds: variable direction winds at 5 MPH (4 knots; 2.1 m/s)
Visibility: 4 miles ( 6 km)
Ceiling: at least 12,000 feet AGL
Clouds: sky clear below 12,000 feet AGL
Weather: no significant weather observed at this time

METAR text: ZBYN 190230Z VRB02MPS 3500 HZ NSC M00/M08 Q1019 NOSIG
Conditions at: ZBYN (TAIYUAN/WUSU , CN) observed 0230 UTC 19 February 2019
Temperature: 0.0°C (32°F)
Dewpoint: -8.0°C (18°F) [RH = 55%]
Pressure (altimeter): 30.09 inches Hg (1019.0 mb)
Winds: variable direction winds at 5 MPH (4 knots; 2.1 m/s)
Visibility: 2.17 miles (3.49 km)
Ceiling: at least 12,000 feet AGL
Clouds: sky clear below 12,000 feet AGL
Weather: HZ  (haze)

METAR text: ZBYN 190200Z VRB01MPS 1500 BR NSC M01/M05 Q1019 BECMG TL0330 3000
Conditions at: ZBYN (TAIYUAN/WUSU , CN) observed 0200 UTC 19 February 2019
Temperature: -1.0°C (30°F)
Dewpoint: -5.0°C (23°F) [RH = 74%]
Pressure (altimeter): 30.09 inches Hg (1019.0 mb)
Winds: variable direction winds at 2 MPH (2 knots; 1.0 m/s)
Visibility: 0.93 miles (1.50 km)
Ceiling: at least 12,000 feet AGL
Clouds: sky clear below 12,000 feet AGL
Weather: BR  (mist)

METAR text: ZBYN 190130Z 16002MPS 120V200 1300 R31/1500N BR SCT011 M03/M05 Q1019 NOSIG
Conditions at: ZBYN (TAIYUAN/WUSU , CN) observed 0130 UTC 19 February 2019
Temperature: -3.0°C (27°F)
Dewpoint: -5.0°C (23°F) [RH = 86%]
Pressure (altimeter): 30.09 inches Hg (1019.0 mb)
Winds: from the SSE (160 degrees) at 5 MPH (4 knots; 2.1 m/s)
Visibility: 0.81 miles (1.30 km)
Ceiling: at least 12,000 feet AGL
Clouds: scattered clouds at 1100 feet AGL
Weather: BR  (mist)

METAR text: ZBYN 190100Z 15002MPS 040V200 1100 R31/1100N BR SCT011 M03/M05 Q1019 BECMG TL0230 1600
Conditions at: ZBYN (TAIYUAN/WUSU , CN) observed 0100 UTC 19 February 2019
Temperature: -3.0°C (27°F)
Dewpoint: -5.0°C (23°F) [RH = 86%]
Pressure (altimeter): 30.09 inches Hg (1019.0 mb)
Winds: from the SSE (150 degrees) at 5 MPH (4 knots; 2.1 m/s)
Visibility: 0.68 miles (1.09 km)
Ceiling: at least 12,000 feet AGL
Clouds: scattered clouds at 1100 feet AGL
Weather: BR  (mist)

METAR text: ZBYN 190030Z VRB01MPS 1100 R31/1300D BR BKN011 M04/M05 Q1018 NOSIG
Conditions at: ZBYN (TAIYUAN/WUSU , CN) observed 0030 UTC 19 February 2019
Temperature: -4.0°C (25°F)
Dewpoint: -5.0°C (23°F) [RH = 93%]
Pressure (altimeter): 30.06 inches Hg (1018.0 mb)
Winds: variable direction winds at 2 MPH (2 knots; 1.0 m/s)
Visibility: 0.68 miles (1.09 km)
Ceiling: 1100 feet AGL
Clouds: broken clouds at 1100 feet AGL
Weather: BR  (mist)

METAR text: ZBYN 190000Z 16002MPS 1400 R31/1800D BR OVC011 M04/M06 Q1018 NOSIG
Conditions at: ZBYN (TAIYUAN/WUSU , CN) observed 0000 UTC 19 February 2019
Temperature: -4.0°C (25°F)
Dewpoint: -6.0°C (21°F) [RH = 86%]
Pressure (altimeter): 30.06 inches Hg (1018.0 mb)
Winds: from the SSE (160 degrees) at 5 MPH (4 knots; 2.1 m/s)
Visibility: 0.87 miles (1.40 km)
Ceiling: 1100 feet AGL
Clouds: overcast cloud deck at 1100 feet AGL
Weather: BR  (mist)

METAR text: ZBYN 182330Z VRB01MPS 1600 BR SCT016 M04/M06 Q1018 NOSIG
Conditions at: ZBYN (TAIYUAN/WUSU , CN) observed 2330 UTC 18 February 2019
Temperature: -4.0°C (25°F)
Dewpoint: -6.0°C (21°F) [RH = 86%]
Pressure (altimeter): 30.06 inches Hg (1018.0 mb)
Winds: variable direction winds at 2 MPH (2 knots; 1.0 m/s)
Visibility: 0.99 miles (1.59 km)
Ceiling: at least 12,000 feet AGL
Clouds: scattered clouds at 1600 feet AGL
Weather: BR  (mist)

METAR text: ZBYN 182300Z VRB01MPS 1800 BR SCT016 M04/M05 Q1017 NOSIG
Conditions at: ZBYN (TAIYUAN/WUSU , CN) observed 2300 UTC 18 February 2019
Temperature: -4.0°C (25°F)
Dewpoint: -5.0°C (23°F) [RH = 93%]
Pressure (altimeter): 30.03 inches Hg (1017.0 mb)
Winds: variable direction winds at 2 MPH (2 knots; 1.0 m/s)
Visibility: 1.12 miles (1.80 km)
Ceiling: at least 12,000 feet AGL
Clouds: scattered clouds at 1600 feet AGL
Weather: BR  (mist)

METAR text: ZBYN 182230Z 13001MPS 2500 BR NSC M04/M06 Q1016 NOSIG
Conditions at: ZBYN (TAIYUAN/WUSU , CN) observed 2230 UTC 18 February 2019
Temperature: -4.0°C (25°F)
Dewpoint: -6.0°C (21°F) [RH = 86%]
Pressure (altimeter): 30.00 inches Hg (1016.0 mb)
Winds: from the SE (130 degrees) at 2 MPH (2 knots; 1.0 m/s)
Visibility: 1.55 miles (2.49 km)
Ceiling: at least 12,000 feet AGL
Clouds: sky clear below 12,000 feet AGL
Weather: BR  (mist)

METAR text: ZBYN 182200Z 14002MPS 2500 BR NSC M05/M06 Q1016 NOSIG
Conditions at: ZBYN (TAIYUAN/WUSU , CN) observed 2200 UTC 18 February 2019
Temperature: -5.0°C (23°F)
Dewpoint: -6.0°C (21°F) [RH = 93%]
Pressure (altimeter): 30.00 inches Hg (1016.0 mb)
Winds: from the SE (140 degrees) at 5 MPH (4 knots; 2.1 m/s)
Visibility: 1.55 miles (2.49 km)
Ceiling: at least 12,000 feet AGL
Clouds: sky clear below 12,000 feet AGL
Weather: BR  (mist)

METAR text: ZBYN 182130Z 11002MPS 2500 BR NSC M04/M06 Q1016 NOSIG
Conditions at: ZBYN (TAIYUAN/WUSU , CN) observed 2130 UTC 18 February 2019
Temperature: -4.0°C (25°F)
Dewpoint: -6.0°C (21°F) [RH = 86%]
Pressure (altimeter): 30.00 inches Hg (1016.0 mb)
Winds: from the ESE (110 degrees) at 5 MPH (4 knots; 2.1 m/s)
Visibility: 1.55 miles (2.49 km)
Ceiling: at least 12,000 feet AGL
Clouds: sky clear below 12,000 feet AGL
Weather: BR  (mist)

METAR text: ZBYN 182100Z 15002MPS 2500 BR NSC M04/M05 Q1016 NOSIG
Conditions at: ZBYN (TAIYUAN/WUSU , CN) observed 2100 UTC 18 February 2019
Temperature: -4.0°C (25°F)
Dewpoint: -5.0°C (23°F) [RH = 93%]
Pressure (altimeter): 30.00 inches Hg (1016.0 mb)
Winds: from the SSE (150 degrees) at 5 MPH (4 knots; 2.1 m/s)
Visibility: 1.55 miles (2.49 km)
Ceiling: at least 12,000 feet AGL
Clouds: sky clear below 12,000 feet AGL
Weather: BR  (mist)

METAR text: ZBYN 182030Z VRB01MPS 2300 BR NSC M04/M05 Q1016 NOSIG
Conditions at: ZBYN (TAIYUAN/WUSU , CN) observed 2030 UTC 18 February 2019
Temperature: -4.0°C (25°F)
Dewpoint: -5.0°C (23°F) [RH = 93%]
Pressure (altimeter): 30.00 inches Hg (1016.0 mb)
Winds: variable direction winds at 2 MPH (2 knots; 1.0 m/s)
Visibility: 1.43 miles (2.30 km)
Ceiling: at least 12,000 feet AGL
Clouds: sky clear below 12,000 feet AGL
Weather: BR  (mist)

METAR text: ZBYN 182000Z 17002MPS 2300 BR NSC M04/M05 Q1016 NOSIG
Conditions at: ZBYN (TAIYUAN/WUSU , CN) observed 2000 UTC 18 February 2019
Temperature: -4.0°C (25°F)
Dewpoint: -5.0°C (23°F) [RH = 93%]
Pressure (altimeter): 30.00 inches Hg (1016.0 mb)
Winds: from the S (170 degrees) at 5 MPH (4 knots; 2.1 m/s)
Visibility: 1.43 miles (2.30 km)
Ceiling: at least 12,000 feet AGL
Clouds: sky clear below 12,000 feet AGL
Weather: BR  (mist)

METAR text: ZBYN 181930Z 16002MPS 1800 BR NSC M04/M06 Q1016 NOSIG
Conditions at: ZBYN (TAIYUAN/WUSU , CN) observed 1930 UTC 18 February 2019
Temperature: -4.0°C (25°F)
Dewpoint: -6.0°C (21°F) [RH = 86%]
Pressure (altimeter): 30.00 inches Hg (1016.0 mb)
Winds: from the SSE (160 degrees) at 5 MPH (4 knots; 2.1 m/s)
Visibility: 1.12 miles (1.80 km)
Ceiling: at least 12,000 feet AGL
Clouds: sky clear below 12,000 feet AGL
Weather: BR  (mist)

METAR text: ZBYN 181900Z 15001MPS 1600 BR NSC M04/M06 Q1016 NOSIG
Conditions at: ZBYN (TAIYUAN/WUSU , CN) observed 1900 UTC 18 February 2019
Temperature: -4.0°C (25°F)
Dewpoint: -6.0°C (21°F) [RH = 86%]
Pressure (altimeter): 30.00 inches Hg (1016.0 mb)
Winds: from the SSE (150 degrees) at 2 MPH (2 knots; 1.0 m/s)
Visibility: 0.99 miles (1.59 km)
Ceiling: at least 12,000 feet AGL
Clouds: sky clear below 12,000 feet AGL
Weather: BR  (mist)

METAR text: ZBYN 181830Z 15002MPS 1400 R31/P2000N BR NSC M04/M06 Q1016 NOSIG
Conditions at: ZBYN (TAIYUAN/WUSU , CN) observed 1830 UTC 18 February 2019
Temperature: -4.0°C (25°F)
Dewpoint: -6.0°C (21°F) [RH = 86%]
Pressure (altimeter): 30.00 inches Hg (1016.0 mb)
Winds: from the SSE (150 degrees) at 5 MPH (4 knots; 2.1 m/s)
Visibility: 0.87 miles (1.40 km)
Ceiling: at least 12,000 feet AGL
Clouds: sky clear below 12,000 feet AGL
Weather: BR  (mist)

METAR text: ZBYN 181800Z 16001MPS 1400 R31/P2000N BR NSC M04/M05 Q1016 NOSIG
Conditions at: ZBYN (TAIYUAN/WUSU , CN) observed 1800 UTC 18 February 2019
Temperature: -4.0°C (25°F)
Dewpoint: -5.0°C (23°F) [RH = 93%]
Pressure (altimeter): 30.00 inches Hg (1016.0 mb)
Winds: from the SSE (160 degrees) at 2 MPH (2 knots; 1.0 m/s)
Visibility: 0.87 miles (1.40 km)
Ceiling: at least 12,000 feet AGL
Clouds: sky clear below 12,000 feet AGL
Weather: BR  (mist)

METAR text: ZBYN 181730Z VRB01MPS 1200 R31/P2000N BR NSC M04/M05 Q1016 NOSIG
Conditions at: ZBYN (TAIYUAN/WUSU , CN) observed 1730 UTC 18 February 2019
Temperature: -4.0°C (25°F)
Dewpoint: -5.0°C (23°F) [RH = 93%]
Pressure (altimeter): 30.00 inches Hg (1016.0 mb)
Winds: variable direction winds at 2 MPH (2 knots; 1.0 m/s)
Visibility: 0.75 miles (1.21 km)
Ceiling: at least 12,000 feet AGL
Clouds: sky clear below 12,000 feet AGL
Weather: BR  (mist)

METAR text: ZBYN 181700Z 16002MPS 1000 R31/P2000N BR NSC M03/M05 Q1016 NOSIG
Conditions at: ZBYN (TAIYUAN/WUSU , CN) observed 1700 UTC 18 February 2019
Temperature: -3.0°C (27°F)
Dewpoint: -5.0°C (23°F) [RH = 86%]
Pressure (altimeter): 30.00 inches Hg (1016.0 mb)
Winds: from the SSE (160 degrees) at 5 MPH (4 knots; 2.1 m/s)
Visibility: 0.62 miles (1.00 km)
Ceiling: at least 12,000 feet AGL
Clouds: sky clear below 12,000 feet AGL
Weather: BR  (mist)

METAR text: ZBYN 181630Z 16002MPS 1000 R31/P2000N BR SCT010 M02/M04 Q1016 NOSIG
Conditions at: ZBYN (TAIYUAN/WUSU , CN) observed 1630 UTC 18 February 2019
Temperature: -2.0°C (28°F)
Dewpoint: -4.0°C (25°F) [RH = 86%]
Pressure (altimeter): 30.00 inches Hg (1016.0 mb)
Winds: from the SSE (160 degrees) at 5 MPH (4 knots; 2.1 m/s)
Visibility: 0.62 miles (1.00 km)
Ceiling: at least 12,000 feet AGL
Clouds: scattered clouds at 1000 feet AGL
Weather: BR  (mist)

METAR text: ZBYN 181600Z VRB01MPS 1000 R31/P2000N BR SCT010 M02/M03 Q1016 NOSIG
Conditions at: ZBYN (TAIYUAN/WUSU , CN) observed 1600 UTC 18 February 2019
Temperature: -2.0°C (28°F)
Dewpoint: -3.0°C (27°F) [RH = 93%]
Pressure (altimeter): 30.00 inches Hg (1016.0 mb)
Winds: variable direction winds at 2 MPH (2 knots; 1.0 m/s)
Visibility: 0.62 miles (1.00 km)
Ceiling: at least 12,000 feet AGL
Clouds: scattered clouds at 1000 feet AGL
Weather: BR  (mist)

METAR text: ZBYN 181530Z 16001MPS 1000 R31/P2000N -SN BR SCT010 M02/M03 Q1016 NOSIG
Conditions at: ZBYN (TAIYUAN/WUSU , CN) observed 1530 UTC 18 February 2019
Temperature: -2.0°C (28°F)
Dewpoint: -3.0°C (27°F) [RH = 93%]
Pressure (altimeter): 30.00 inches Hg (1016.0 mb)
Winds: from the SSE (160 degrees) at 2 MPH (2 knots; 1.0 m/s)
Visibility: 0.62 miles (1.00 km)
Ceiling: at least 12,000 feet AGL
Clouds: scattered clouds at 1000 feet AGL
Weather: -SN BR  (light snow, mist)

METAR text: ZBYN 181500Z VRB01MPS 1000 R31/P2000N -SN BR SCT010 M02/M03 Q1017 NOSIG
Conditions at: ZBYN (TAIYUAN/WUSU , CN) observed 1500 UTC 18 February 2019
Temperature: -2.0°C (28°F)
Dewpoint: -3.0°C (27°F) [RH = 93%]
Pressure (altimeter): 30.03 inches Hg (1017.0 mb)
Winds: variable direction winds at 2 MPH (2 knots; 1.0 m/s)
Visibility: 0.62 miles (1.00 km)
Ceiling: at least 12,000 feet AGL
Clouds: scattered clouds at 1000 feet AGL
Weather: -SN BR  (light snow, mist)

METAR text: ZBYN 181430Z 16002MPS 130V190 1000 R31/P2000N BR SCT010 M02/M03 Q1017 NOSIG
Conditions at: ZBYN (TAIYUAN/WUSU , CN) observed 1430 UTC 18 February 2019
Temperature: -2.0°C (28°F)
Dewpoint: -3.0°C (27°F) [RH = 93%]
Pressure (altimeter): 30.03 inches Hg (1017.0 mb)
Winds: from the SSE (160 degrees) at 5 MPH (4 knots; 2.1 m/s)
Visibility: 0.62 miles (1.00 km)
Ceiling: at least 12,000 feet AGL
Clouds: scattered clouds at 1000 feet AGL
Weather: BR  (mist)

METAR text: ZBYN 181400Z 15001MPS 1000 R31/P2000N -SN BR SCT010 M02/M03 Q1016 NOSIG
Conditions at: ZBYN (TAIYUAN/WUSU , CN) observed 1400 UTC 18 February 2019
Temperature: -2.0°C (28°F)
Dewpoint: -3.0°C (27°F) [RH = 93%]
Pressure (altimeter): 30.00 inches Hg (1016.0 mb)
Winds: from the SSE (150 degrees) at 2 MPH (2 knots; 1.0 m/s)
Visibility: 0.62 miles (1.00 km)
Ceiling: at least 12,000 feet AGL
Clouds: scattered clouds at 1000 feet AGL
Weather: -SN BR  (light snow, mist)

METAR text: ZBYN 181330Z 15001MPS 1000 R31/P2000N -SN BR SCT010 M02/M03 Q1016 NOSIG
Conditions at: ZBYN (TAIYUAN/WUSU , CN) observed 1330 UTC 18 February 2019
Temperature: -2.0°C (28°F)
Dewpoint: -3.0°C (27°F) [RH = 93%]
Pressure (altimeter): 30.00 inches Hg (1016.0 mb)
Winds: from the SSE (150 degrees) at 2 MPH (2 knots; 1.0 m/s)
Visibility: 0.62 miles (1.00 km)
Ceiling: at least 12,000 feet AGL
Clouds: scattered clouds at 1000 feet AGL
Weather: -SN BR  (light snow, mist)

METAR text: ZBYN 181300Z 16001MPS 1600 -SN BR SCT010 M01/M03 Q1016 BECMG TL1340 1200 -SN BR
Conditions at: ZBYN (TAIYUAN/WUSU , CN) observed 1300 UTC 18 February 2019
Temperature: -1.0°C (30°F)
Dewpoint: -3.0°C (27°F) [RH = 86%]
Pressure (altimeter): 30.00 inches Hg (1016.0 mb)
Winds: from the SSE (160 degrees) at 2 MPH (2 knots; 1.0 m/s)
Visibility: 0.99 miles (1.59 km)
Ceiling: at least 12,000 feet AGL
Clouds: scattered clouds at 1000 feet AGL
Weather: -SN BR  (light snow, mist)

METAR text: ZBYN 181230Z VRB01MPS 1600 -SN BR SCT010 M01/M03 Q1016 NOSIG
Conditions at: ZBYN (TAIYUAN/WUSU , CN) observed 1230 UTC 18 February 2019
Temperature: -1.0°C (30°F)
Dewpoint: -3.0°C (27°F) [RH = 86%]
Pressure (altimeter): 30.00 inches Hg (1016.0 mb)
Winds: variable direction winds at 2 MPH (2 knots; 1.0 m/s)
Visibility: 0.99 miles (1.59 km)
Ceiling: at least 12,000 feet AGL
Clouds: scattered clouds at 1000 feet AGL
Weather: -SN BR  (light snow, mist)

METAR text: ZBYN 181200Z 18002MPS 1600 BR SCT010 M01/M03 Q1016 NOSIG
Conditions at: ZBYN (TAIYUAN/WUSU , CN) observed 1200 UTC 18 February 2019
Temperature: -1.0°C (30°F)
Dewpoint: -3.0°C (27°F) [RH = 86%]
Pressure (altimeter): 30.00 inches Hg (1016.0 mb)
Winds: from the S (180 degrees) at 5 MPH (4 knots; 2.1 m/s)
Visibility: 0.99 miles (1.59 km)
Ceiling: at least 12,000 feet AGL
Clouds: scattered clouds at 1000 feet AGL
Weather: BR  (mist)

METAR text: ZBYN 181130Z 20002MPS 170V230 1600 -SN BR NSC M01/M03 Q1016 NOSIG
Conditions at: ZBYN (TAIYUAN/WUSU , CN) observed 1130 UTC 18 February 2019
Temperature: -1.0°C (30°F)
Dewpoint: -3.0°C (27°F) [RH = 86%]
Pressure (altimeter): 30.00 inches Hg (1016.0 mb)
Winds: from the SSW (200 degrees) at 5 MPH (4 knots; 2.1 m/s)
Visibility: 0.99 miles (1.59 km)
Ceiling: at least 12,000 feet AGL
Clouds: sky clear below 12,000 feet AGL
Weather: -SN BR  (light snow, mist)

METAR text: ZBYN 181100Z 17002MPS 140V200 2000 -SN BR NSC M01/M03 Q1015 NOSIG
Conditions at: ZBYN (TAIYUAN/WUSU , CN) observed 1100 UTC 18 February 2019
Temperature: -1.0°C (30°F)
Dewpoint: -3.0°C (27°F) [RH = 86%]
Pressure (altimeter): 29.97 inches Hg (1015.0 mb)
Winds: from the S (170 degrees) at 5 MPH (4 knots; 2.1 m/s)
Visibility: 1.24 miles (2.00 km)
Ceiling: at least 12,000 feet AGL
Clouds: sky clear below 12,000 feet AGL
Weather: -SN BR  (light snow, mist)

METAR text: ZBYN 181030Z 17001MPS 1600 BR NSC M01/M03 Q1015 NOSIG
Conditions at: ZBYN (TAIYUAN/WUSU , CN) observed 1030 UTC 18 February 2019
Temperature: -1.0°C (30°F)
Dewpoint: -3.0°C (27°F) [RH = 86%]
Pressure (altimeter): 29.97 inches Hg (1015.0 mb)
Winds: from the S (170 degrees) at 2 MPH (2 knots; 1.0 m/s)
Visibility: 0.99 miles (1.59 km)
Ceiling: at least 12,000 feet AGL
Clouds: sky clear below 12,000 feet AGL
Weather: BR  (mist)

METAR text: ZBYN 181000Z 15002MPS 1600 BR NSC M00/M03 Q1015 NOSIG
Conditions at: ZBYN (TAIYUAN/WUSU , CN) observed 1000 UTC 18 February 2019
Temperature: 0.0°C (32°F)
Dewpoint: -3.0°C (27°F) [RH = 80%]
Pressure (altimeter): 29.97 inches Hg (1015.0 mb)
Winds: from the SSE (150 degrees) at 5 MPH (4 knots; 2.1 m/s)
Visibility: 0.99 miles (1.59 km)
Ceiling: at least 12,000 feet AGL
Clouds: sky clear below 12,000 feet AGL
Weather: BR  (mist)

METAR text: ZBYN 180930Z VRB01MPS 2000 BR NSC 00/M04 Q1015 NOSIG
Conditions at: ZBYN (TAIYUAN/WUSU , CN) observed 0930 UTC 18 February 2019
Temperature: 0.0°C (32°F)
Dewpoint: -4.0°C (25°F) [RH = 74%]
Pressure (altimeter): 29.97 inches Hg (1015.0 mb)
Winds: variable direction winds at 2 MPH (2 knots; 1.0 m/s)
Visibility: 1.24 miles (2.00 km)
Ceiling: at least 12,000 feet AGL
Clouds: sky clear below 12,000 feet AGL
Weather: BR  (mist)

METAR text: ZBYN 180900Z VRB01MPS 2000 BR NSC 00/M04 Q1015 NOSIG
Conditions at: ZBYN (TAIYUAN/WUSU , CN) observed 0900 UTC 18 February 2019
Temperature: 0.0°C (32°F)
Dewpoint: -4.0°C (25°F) [RH = 74%]
Pressure (altimeter): 29.97 inches Hg (1015.0 mb)
Winds: variable direction winds at 2 MPH (2 knots; 1.0 m/s)
Visibility: 1.24 miles (2.00 km)
Ceiling: at least 12,000 feet AGL
Clouds: sky clear below 12,000 feet AGL
Weather: BR  (mist)

METAR text: ZBYN 180830Z VRB01MPS 2000 BR NSC 01/M04 Q1015 NOSIG
Conditions at: ZBYN (TAIYUAN/WUSU , CN) observed 0830 UTC 18 February 2019
Temperature: 1.0°C (34°F)
Dewpoint: -4.0°C (25°F) [RH = 69%]
Pressure (altimeter): 29.97 inches Hg (1015.0 mb)
Winds: variable direction winds at 2 MPH (2 knots; 1.0 m/s)
Visibility: 1.24 miles (2.00 km)
Ceiling: at least 12,000 feet AGL
Clouds: sky clear below 12,000 feet AGL
Weather: BR  (mist)

METAR text: ZBYN 180800Z VRB01MPS 2000 BR FEW020 00/M03 Q1015 NOSIG
Conditions at: ZBYN (TAIYUAN/WUSU , CN) observed 0800 UTC 18 February 2019
Temperature: 0.0°C (32°F)
Dewpoint: -3.0°C (27°F) [RH = 80%]
Pressure (altimeter): 29.97 inches Hg (1015.0 mb)
Winds: variable direction winds at 2 MPH (2 knots; 1.0 m/s)
Visibility: 1.24 miles (2.00 km)
Ceiling: at least 12,000 feet AGL
Clouds: few clouds at 2000 feet AGL
Weather: BR  (mist)

METAR text: ZBYN 180730Z VRB01MPS 1700 -RASN BR FEW020 00/M03 Q1015 NOSIG
Conditions at: ZBYN (TAIYUAN/WUSU , CN) observed 0730 UTC 18 February 2019
Temperature: 0.0°C (32°F)
Dewpoint: -3.0°C (27°F) [RH = 80%]
Pressure (altimeter): 29.97 inches Hg (1015.0 mb)
Winds: variable direction winds at 2 MPH (2 knots; 1.0 m/s)
Visibility: 1.06 miles (1.71 km)
Ceiling: at least 12,000 feet AGL
Clouds: few clouds at 2000 feet AGL
Weather: -RA -SN BR  (light rain, light snow, mist)

METAR text: ZBYN 180700Z VRB01MPS 1700 -RASN BR FEW020 M00/M03 Q1016 NOSIG
Conditions at: ZBYN (TAIYUAN/WUSU , CN) observed 0700 UTC 18 February 2019
Temperature: 0.0°C (32°F)
Dewpoint: -3.0°C (27°F) [RH = 80%]
Pressure (altimeter): 30.00 inches Hg (1016.0 mb)
Winds: variable direction winds at 2 MPH (2 knots; 1.0 m/s)
Visibility: 1.06 miles (1.71 km)
Ceiling: at least 12,000 feet AGL
Clouds: few clouds at 2000 feet AGL
Weather: -RA -SN BR  (light rain, light snow, mist)

METAR text: ZBYN 180630Z 33002MPS 300V020 2000 -RASN BR FEW020 00/M03 Q1016 NOSIG
Conditions at: ZBYN (TAIYUAN/WUSU , CN) observed 0630 UTC 18 February 2019
Temperature: 0.0°C (32°F)
Dewpoint: -3.0°C (27°F) [RH = 80%]
Pressure (altimeter): 30.00 inches Hg (1016.0 mb)
Winds: from the NNW (330 degrees) at 5 MPH (4 knots; 2.1 m/s)
Visibility: 1.24 miles (2.00 km)
Ceiling: at least 12,000 feet AGL
Clouds: few clouds at 2000 feet AGL
Weather: -RA -SN BR  (light rain, light snow, mist)

METAR text: ZBYN 180600Z 31003MPS 280V340 2000 -RASN BR SCT020 00/M04 Q1017 NOSIG
Conditions at: ZBYN (TAIYUAN/WUSU , CN) observed 0600 UTC 18 February 2019
Temperature: 0.0°C (32°F)
Dewpoint: -4.0°C (25°F) [RH = 74%]
Pressure (altimeter): 30.03 inches Hg (1017.0 mb)
Winds: from the NW (310 degrees) at 7 MPH (6 knots; 3.1 m/s)
Visibility: 1.24 miles (2.00 km)
Ceiling: at least 12,000 feet AGL
Clouds: scattered clouds at 2000 feet AGL
Weather: -RA -SN BR  (light rain, light snow, mist)

METAR text: ZBYN 180530Z 34002MPS 290V040 2000 -RASN BR SCT020 00/M04 Q1017 NOSIG
Conditions at: ZBYN (TAIYUAN/WUSU , CN) observed 0530 UTC 18 February 2019
Temperature: 0.0°C (32°F)
Dewpoint: -4.0°C (25°F) [RH = 74%]
Pressure (altimeter): 30.03 inches Hg (1017.0 mb)
Winds: from the NNW (340 degrees) at 5 MPH (4 knots; 2.1 m/s)
Visibility: 1.24 miles (2.00 km)
Ceiling: at least 12,000 feet AGL
Clouds: scattered clouds at 2000 feet AGL
Weather: -RA -SN BR  (light rain, light snow, mist)

METAR text: ZBYN 180500Z 32003MPS 1600 -RASN BR SCT020 M00/M02 Q1018 NOSIG
Conditions at: ZBYN (TAIYUAN/WUSU , CN) observed 0500 UTC 18 February 2019
Temperature: 0.0°C (32°F)
Dewpoint: -2.0°C (28°F) [RH = 86%]
Pressure (altimeter): 30.06 inches Hg (1018.0 mb)
Winds: from the NW (320 degrees) at 7 MPH (6 knots; 3.1 m/s)
Visibility: 0.99 miles (1.59 km)
Ceiling: at least 12,000 feet AGL
Clouds: scattered clouds at 2000 feet AGL
Weather: -RA -SN BR  (light rain, light snow, mist)

METAR text: ZBYN 180430Z 32003MPS 290V350 2100 -RASN HZ FEW020 00/M03 Q1018 NOSIG
Conditions at: ZBYN (TAIYUAN/WUSU , CN) observed 0430 UTC 18 February 2019
Temperature: 0.0°C (32°F)
Dewpoint: -3.0°C (27°F) [RH = 80%]
Pressure (altimeter): 30.06 inches Hg (1018.0 mb)
Winds: from the NW (320 degrees) at 7 MPH (6 knots; 3.1 m/s)
Visibility: 1.30 miles (2.09 km)
Ceiling: at least 12,000 feet AGL
Clouds: few clouds at 2000 feet AGL
Weather: -RA -SN HZ  (light rain, light snow, haze)

METAR text: ZBYN 180400Z 31004MPS 270V360 3000 -SN HZ FEW020 00/M05 Q1019 BECMG TL0440 2500 -SN RMK HZ
Conditions at: ZBYN (TAIYUAN/WUSU , CN) observed 0400 UTC 18 February 2019
Temperature: 0.0°C (32°F)
Dewpoint: -5.0°C (23°F) [RH = 69%]
Pressure (altimeter): 30.09 inches Hg (1019.0 mb)
Winds: from the NW (310 degrees) at 9 MPH (8 knots; 4.1 m/s)
Visibility: 1.86 miles (2.99 km)
Ceiling: at least 12,000 feet AGL
Clouds: few clouds at 2000 feet AGL
Weather: -SN HZ  (light snow, haze)

METAR text: ZBYN 180330Z 30002MPS 250V340 5000 HZ NSC 01/M06 Q1019 NOSIG
Conditions at: ZBYN (TAIYUAN/WUSU , CN) observed 0330 UTC 18 February 2019
Temperature: 1.0°C (34°F)
Dewpoint: -6.0°C (21°F) [RH = 59%]
Pressure (altimeter): 30.09 inches Hg (1019.0 mb)
Winds: from the WNW (300 degrees) at 5 MPH (4 knots; 2.1 m/s)
Visibility: 3 miles ( 5 km)
Ceiling: at least 12,000 feet AGL
Clouds: sky clear below 12,000 feet AGL
Weather: HZ  (haze)

METAR text: ZBYN 180300Z 36002MPS 270V070 5000 HZ NSC 00/M08 Q1019 NOSIG
Conditions at: ZBYN (TAIYUAN/WUSU , CN) observed 0300 UTC 18 February 2019
Temperature: 0.0°C (32°F)
Dewpoint: -8.0°C (18°F) [RH = 55%]
Pressure (altimeter): 30.09 inches Hg (1019.0 mb)
Winds: from the N (360 degrees) at 5 MPH (4 knots; 2.1 m/s)
Visibility: 3 miles ( 5 km)
Ceiling: at least 12,000 feet AGL
Clouds: sky clear below 12,000 feet AGL
Weather: HZ  (haze)

METAR text: ZBYN 180230Z 34002MPS 5000 HZ NSC 00/M07 Q1019 NOSIG
Conditions at: ZBYN (TAIYUAN/WUSU , CN) observed 0230 UTC 18 February 2019
Temperature: 0.0°C (32°F)
Dewpoint: -7.0°C (19°F) [RH = 59%]
Pressure (altimeter): 30.09 inches Hg (1019.0 mb)
Winds: from the NNW (340 degrees) at 5 MPH (4 knots; 2.1 m/s)
Visibility: 3 miles ( 5 km)
Ceiling: at least 12,000 feet AGL
Clouds: sky clear below 12,000 feet AGL
Weather: HZ  (haze)

METAR text: ZBYN 180200Z 31003MPS 5000 -SN HZ NSC M01/M06 Q1019 NOSIG
Conditions at: ZBYN (TAIYUAN/WUSU , CN) observed 0200 UTC 18 February 2019
Temperature: -1.0°C (30°F)
Dewpoint: -6.0°C (21°F) [RH = 69%]
Pressure (altimeter): 30.09 inches Hg (1019.0 mb)
Winds: from the NW (310 degrees) at 7 MPH (6 knots; 3.1 m/s)
Visibility: 3 miles ( 5 km)
Ceiling: at least 12,000 feet AGL
Clouds: sky clear below 12,000 feet AGL
Weather: -SN HZ  (light snow, haze)

METAR text: ZBYN 180130Z 30003MPS 6000 NSC M00/M08 Q1019 NOSIG
Conditions at: ZBYN (TAIYUAN/WUSU , CN) observed 0130 UTC 18 February 2019
Temperature: 0.0°C (32°F)
Dewpoint: -8.0°C (18°F) [RH = 55%]
Pressure (altimeter): 30.09 inches Hg (1019.0 mb)
Winds: from the WNW (300 degrees) at 7 MPH (6 knots; 3.1 m/s)
Visibility: 4 miles ( 6 km)
Ceiling: at least 12,000 feet AGL
Clouds: sky clear below 12,000 feet AGL
Weather: no significant weather observed at this time

METAR text: ZBYN 180100Z VRB01MPS CAVOK M01/M12 Q1019 NOSIG
Conditions at: ZBYN (TAIYUAN/WUSU , CN) observed 0100 UTC 18 February 2019
Temperature: -1.0°C (30°F)
Dewpoint: -12.0°C (10°F) [RH = 43%]
Pressure (altimeter): 30.09 inches Hg (1019.0 mb)
Winds: variable direction winds at 2 MPH (2 knots; 1.0 m/s)
Visibility: 6 or more miles (10+ km)
Ceiling: ceiling and visibility are OK
Clouds: unknown
Weather: no significant weather observed at this time

METAR text: ZBYN 180030Z VRB01MPS CAVOK M02/M11 Q1019 NOSIG
Conditions at: ZBYN (TAIYUAN/WUSU , CN) observed 0030 UTC 18 February 2019
Temperature: -2.0°C (28°F)
Dewpoint: -11.0°C (12°F) [RH = 50%]
Pressure (altimeter): 30.09 inches Hg (1019.0 mb)
Winds: variable direction winds at 2 MPH (2 knots; 1.0 m/s)
Visibility: 6 or more miles (10+ km)
Ceiling: ceiling and visibility are OK
Clouds: unknown
Weather: no significant weather observed at this time

METAR text: ZBYN 180000Z 03002MPS CAVOK M03/M11 Q1019 NOSIG
Conditions at: ZBYN (TAIYUAN/WUSU , CN) observed 0000 UTC 18 February 2019
Temperature: -3.0°C (27°F)
Dewpoint: -11.0°C (12°F) [RH = 54%]
Pressure (altimeter): 30.09 inches Hg (1019.0 mb)
Winds: from the NNE (30 degrees) at 5 MPH (4 knots; 2.1 m/s)
Visibility: 6 or more miles (10+ km)
Ceiling: ceiling and visibility are OK
Clouds: unknown
Weather: no significant weather observed at this time

METAR text: ZBYN 172330Z 00000MPS CAVOK M03/M11 Q1019 NOSIG
Conditions at: ZBYN (TAIYUAN/WUSU , CN) observed 2330 UTC 17 February 2019
Temperature: -3.0°C (27°F)
Dewpoint: -11.0°C (12°F) [RH = 54%]
Pressure (altimeter): 30.09 inches Hg (1019.0 mb)
Winds: calm
Visibility: 6 or more miles (10+ km)
Ceiling: ceiling and visibility are OK
Clouds: unknown
Weather: no significant weather observed at this time

METAR text: ZBYN 172300Z 00000MPS CAVOK M03/M11 Q1019 NOSIG
Conditions at: ZBYN (TAIYUAN/WUSU , CN) observed 2300 UTC 17 February 2019
Temperature: -3.0°C (27°F)
Dewpoint: -11.0°C (12°F) [RH = 54%]
Pressure (altimeter): 30.09 inches Hg (1019.0 mb)
Winds: calm
Visibility: 6 or more miles (10+ km)
Ceiling: ceiling and visibility are OK
Clouds: unknown
Weather: no significant weather observed at this time

METAR text: ZBYN 172230Z 32001MPS CAVOK M03/M12 Q1019 NOSIG
Conditions at: ZBYN (TAIYUAN/WUSU , CN) observed 2230 UTC 17 February 2019
Temperature: -3.0°C (27°F)
Dewpoint: -12.0°C (10°F) [RH = 50%]
Pressure (altimeter): 30.09 inches Hg (1019.0 mb)
Winds: from the NW (320 degrees) at 2 MPH (2 knots; 1.0 m/s)
Visibility: 6 or more miles (10+ km)
Ceiling: ceiling and visibility are OK
Clouds: unknown
Weather: no significant weather observed at this time

METAR text: ZBYN 172200Z 36001MPS CAVOK M04/M11 Q1018 NOSIG
Conditions at: ZBYN (TAIYUAN/WUSU , CN) observed 2200 UTC 17 February 2019
Temperature: -4.0°C (25°F)
Dewpoint: -11.0°C (12°F) [RH = 58%]
Pressure (altimeter): 30.06 inches Hg (1018.0 mb)
Winds: from the N (360 degrees) at 2 MPH (2 knots; 1.0 m/s)
Visibility: 6 or more miles (10+ km)
Ceiling: ceiling and visibility are OK
Clouds: unknown
Weather: no significant weather observed at this time

METAR text: ZBYN 172130Z 13001MPS CAVOK M03/M12 Q1018 NOSIG
Conditions at: ZBYN (TAIYUAN/WUSU , CN) observed 2130 UTC 17 February 2019
Temperature: -3.0°C (27°F)
Dewpoint: -12.0°C (10°F) [RH = 50%]
Pressure (altimeter): 30.06 inches Hg (1018.0 mb)
Winds: from the SE (130 degrees) at 2 MPH (2 knots; 1.0 m/s)
Visibility: 6 or more miles (10+ km)
Ceiling: ceiling and visibility are OK
Clouds: unknown
Weather: no significant weather observed at this time

METAR text: ZBYN 172100Z 10001MPS CAVOK M04/M13 Q1018 NOSIG
Conditions at: ZBYN (TAIYUAN/WUSU , CN) observed 2100 UTC 17 February 2019
Temperature: -4.0°C (25°F)
Dewpoint: -13.0°C ( 9°F) [RH = 50%]
Pressure (altimeter): 30.06 inches Hg (1018.0 mb)
Winds: from the E (100 degrees) at 2 MPH (2 knots; 1.0 m/s)
Visibility: 6 or more miles (10+ km)
Ceiling: ceiling and visibility are OK
Clouds: unknown
Weather: no significant weather observed at this time

METAR text: ZBYN 172030Z 02001MPS CAVOK M04/M12 Q1019 NOSIG
Conditions at: ZBYN (TAIYUAN/WUSU , CN) observed 2030 UTC 17 February 2019
Temperature: -4.0°C (25°F)
Dewpoint: -12.0°C (10°F) [RH = 54%]
Pressure (altimeter): 30.09 inches Hg (1019.0 mb)
Winds: from the NNE (20 degrees) at 2 MPH (2 knots; 1.0 m/s)
Visibility: 6 or more miles (10+ km)
Ceiling: ceiling and visibility are OK
Clouds: unknown
Weather: no significant weather observed at this time

METAR text: ZBYN 172000Z VRB01MPS CAVOK M04/M12 Q1019 NOSIG
Conditions at: ZBYN (TAIYUAN/WUSU , CN) observed 2000 UTC 17 February 2019
Temperature: -4.0°C (25°F)
Dewpoint: -12.0°C (10°F) [RH = 54%]
Pressure (altimeter): 30.09 inches Hg (1019.0 mb)
Winds: variable direction winds at 2 MPH (2 knots; 1.0 m/s)
Visibility: 6 or more miles (10+ km)
Ceiling: ceiling and visibility are OK
Clouds: unknown
Weather: no significant weather observed at this time

METAR text: ZBYN 171930Z 05002MPS CAVOK M04/M12 Q1019 NOSIG
Conditions at: ZBYN (TAIYUAN/WUSU , CN) observed 1930 UTC 17 February 2019
Temperature: -4.0°C (25°F)
Dewpoint: -12.0°C (10°F) [RH = 54%]
Pressure (altimeter): 30.09 inches Hg (1019.0 mb)
Winds: from the NE (50 degrees) at 5 MPH (4 knots; 2.1 m/s)
Visibility: 6 or more miles (10+ km)
Ceiling: ceiling and visibility are OK
Clouds: unknown
Weather: no significant weather observed at this time

METAR text: ZBYN 171900Z 13001MPS CAVOK M05/M12 Q1020 NOSIG
Conditions at: ZBYN (TAIYUAN/WUSU , CN) observed 1900 UTC 17 February 2019
Temperature: -5.0°C (23°F)
Dewpoint: -12.0°C (10°F) [RH = 58%]
Pressure (altimeter): 30.12 inches Hg (1020.0 mb)
Winds: from the SE (130 degrees) at 2 MPH (2 knots; 1.0 m/s)
Visibility: 6 or more miles (10+ km)
Ceiling: ceiling and visibility are OK
Clouds: unknown
Weather: no significant weather observed at this time

METAR text: ZBYN 171830Z 00000MPS CAVOK M05/M14 Q1020 NOSIG
Conditions at: ZBYN (TAIYUAN/WUSU , CN) observed 1830 UTC 17 February 2019
Temperature: -5.0°C (23°F)
Dewpoint: -14.0°C ( 7°F) [RH = 49%]
Pressure (altimeter): 30.12 inches Hg (1020.0 mb)
Winds: calm
Visibility: 6 or more miles (10+ km)
Ceiling: ceiling and visibility are OK
Clouds: unknown
Weather: no significant weather observed at this time

Forecast for: ZBYN (TAIYUAN/WUSU , CN)
Text: TAF ZBYN 190301Z 1906/2006 32004MPS 5000 BR NSC TX06/1907Z TNM07/22Z
Forecast period: 0600 UTC 19 February 2019 to 0600 UTC 20 February 2019
Forecast type: FROM: standard forecast or significant change
Winds: from the NW (320 degrees) at 9 MPH (8 knots; 4.1 m/s)
Visibility: 3 miles (5 km)
Ceiling: unknown
Clouds: missing
Weather: BR  (mist)